createdAt,value
2019-01-03T00:00:40.614Z,0.00
2019-01-03T00:01:40.606Z,0.00
2019-01-03T00:02:40.424Z,0.00
2019-01-03T00:03:40.296Z,0.00
2019-01-03T00:04:40.191Z,0.00
2019-01-03T00:05:40.086Z,0.00
2019-01-03T00:06:39.980Z,0.00
2019-01-03T00:07:39.891Z,0.00
2019-01-03T00:08:39.874Z,0.00
2019-01-03T00:09:39.664Z,0.00
2019-01-03T00:10:39.557Z,0.00
2019-01-03T00:11:39.469Z,0.00
2019-01-03T00:12:39.374Z,0.00
2019-01-03T00:13:39.238Z,0.00
2019-01-03T00:14:39.136Z,0.00
2019-01-03T00:15:39.130Z,0.00
2019-01-03T00:16:38.923Z,0.00
2019-01-03T00:17:38.836Z,0.00
2019-01-03T00:18:38.718Z,0.00
2019-01-03T00:19:38.609Z,0.00
2019-01-03T00:20:38.502Z,0.00
2019-01-03T00:21:38.397Z,0.00
2019-01-03T00:22:38.406Z,0.00
2019-01-03T00:23:38.184Z,0.00
2019-01-03T00:24:38.082Z,0.00
2019-01-03T00:25:37.975Z,0.00
2019-01-03T00:26:37.868Z,0.00
2019-01-03T00:27:37.782Z,0.00
2019-01-03T00:28:37.660Z,0.00
2019-01-03T00:29:37.676Z,0.00
2019-01-03T00:30:37.447Z,0.00
2019-01-03T00:31:37.340Z,0.00
2019-01-03T00:32:37.255Z,0.00
2019-01-03T00:33:37.130Z,0.00
2019-01-03T00:34:37.029Z,0.00
2019-01-03T00:35:36.919Z,0.00
2019-01-03T00:36:36.924Z,0.00
2019-01-03T00:37:36.725Z,0.00
2019-01-03T00:38:36.605Z,0.00
2019-01-03T00:39:36.500Z,0.00
2019-01-03T00:40:36.397Z,0.00
2019-01-03T00:41:36.287Z,0.00
2019-01-03T00:42:36.198Z,0.00
2019-01-03T00:43:36.177Z,0.00
2019-01-03T00:44:35.974Z,0.00
2019-01-03T00:45:35.874Z,0.00
2019-01-03T00:46:35.765Z,0.00
2019-01-03T00:47:35.692Z,0.00
2019-01-03T00:48:35.548Z,0.00
2019-01-03T00:49:35.444Z,0.00
2019-01-03T00:50:35.440Z,0.00
2019-01-03T00:51:35.236Z,0.00
2019-01-03T00:52:35.146Z,0.00
2019-01-03T00:53:35.023Z,0.00
2019-01-03T00:54:34.918Z,0.00
2019-01-03T00:55:34.813Z,0.00
2019-01-03T00:56:34.710Z,0.00
2019-01-03T00:57:34.620Z,0.00
2019-01-03T00:58:34.495Z,0.00
2019-01-03T00:59:34.390Z,0.00
2019-01-03T01:00:34.288Z,0.00
2019-01-03T01:01:34.184Z,0.00
2019-01-03T01:02:34.093Z,0.00
2019-01-03T01:03:33.970Z,0.00
2019-01-03T01:04:33.966Z,0.00
2019-01-03T01:05:34.328Z,0.00
2019-01-03T01:06:33.659Z,0.00
2019-01-03T01:07:33.554Z,0.00
2019-01-03T01:08:33.465Z,0.00
2019-01-03T01:09:33.346Z,0.00
2019-01-03T01:10:33.358Z,0.00
2019-01-03T01:11:33.129Z,0.00
2019-01-03T01:12:33.028Z,0.00
2019-01-03T01:13:32.936Z,0.00
2019-01-03T01:14:32.810Z,0.00
2019-01-03T01:15:32.709Z,0.00
2019-01-03T01:16:32.605Z,0.00
2019-01-03T01:17:32.495Z,0.00
2019-01-03T01:18:32.408Z,0.00
2019-01-03T01:19:32.284Z,0.00
2019-01-03T01:20:32.183Z,0.00
2019-01-03T01:21:32.078Z,0.00
2019-01-03T01:22:31.973Z,0.00
2019-01-03T01:23:31.898Z,0.00
2019-01-03T01:24:31.758Z,0.00
2019-01-03T01:25:31.656Z,0.00
2019-01-03T01:26:31.549Z,0.00
2019-01-03T01:27:31.444Z,0.00
2019-01-03T01:28:31.352Z,0.00
2019-01-03T01:29:31.232Z,0.00
2019-01-03T01:30:31.127Z,0.00
2019-01-03T01:31:31.023Z,0.00
2019-01-03T01:32:30.915Z,0.00
2019-01-03T01:33:30.829Z,0.00
2019-01-03T01:34:30.706Z,0.00
2019-01-03T01:35:30.603Z,0.00
2019-01-03T01:36:30.496Z,0.00
2019-01-03T01:37:30.389Z,0.00
2019-01-03T01:38:30.300Z,0.00
2019-01-03T01:39:30.181Z,0.00
2019-01-03T01:40:30.074Z,0.00
2019-01-03T01:41:29.970Z,0.00
2019-01-03T01:42:29.862Z,0.00
2019-01-03T01:43:29.771Z,0.00
2019-01-03T01:44:29.647Z,0.00
2019-01-03T01:45:29.542Z,0.00
2019-01-03T01:46:29.442Z,0.00
2019-01-03T01:47:29.335Z,0.00
2019-01-03T01:48:29.244Z,0.00
2019-01-03T01:49:29.123Z,0.00
2019-01-03T01:50:29.014Z,0.00
2019-01-03T01:51:28.914Z,0.00
2019-01-03T01:52:28.807Z,0.00
2019-01-03T01:53:28.720Z,0.00
2019-01-03T01:54:28.595Z,0.00
2019-01-03T01:55:28.490Z,0.00
2019-01-03T01:56:28.391Z,0.00
2019-01-03T01:57:28.281Z,0.00
2019-01-03T01:58:28.186Z,0.00
2019-01-03T01:59:28.070Z,0.00
2019-01-03T02:00:27.963Z,0.00
2019-01-03T02:01:27.855Z,0.00
2019-01-03T02:02:27.747Z,0.00
2019-01-03T02:03:27.661Z,0.00
2019-01-03T02:04:27.537Z,0.00
2019-01-03T02:05:27.431Z,0.00
2019-01-03T02:06:27.330Z,0.00
2019-01-03T02:07:27.221Z,0.00
2019-01-03T02:08:27.134Z,0.00
2019-01-03T02:09:27.009Z,0.00
2019-01-03T02:10:26.906Z,0.00
2019-01-03T02:11:26.801Z,0.00
2019-01-03T02:12:26.697Z,0.00
2019-01-03T02:13:26.605Z,0.00
2019-01-03T02:14:26.486Z,0.00
2019-01-03T02:15:26.375Z,0.00
2019-01-03T02:16:26.273Z,0.00
2019-01-03T02:17:26.178Z,0.00
2019-01-03T02:18:26.081Z,0.00
2019-01-03T02:19:25.953Z,0.00
2019-01-03T02:20:25.851Z,0.00
2019-01-03T02:21:25.742Z,0.00
2019-01-03T02:22:25.639Z,0.00
2019-01-03T02:23:25.550Z,0.00
2019-01-03T02:24:25.441Z,0.00
2019-01-03T02:25:25.322Z,0.00
2019-01-03T02:26:25.237Z,0.00
2019-01-03T02:27:25.112Z,0.00
2019-01-03T02:28:25.023Z,0.00
2019-01-03T02:29:24.900Z,0.00
2019-01-03T02:30:24.795Z,0.00
2019-01-03T02:31:24.690Z,0.00
2019-01-03T02:32:24.588Z,0.00
2019-01-03T02:33:24.501Z,0.00
2019-01-03T02:34:24.375Z,0.00
2019-01-03T02:35:24.267Z,0.00
2019-01-03T02:36:24.162Z,0.00
2019-01-03T02:37:24.058Z,0.00
2019-01-03T02:38:23.967Z,0.00
2019-01-03T02:39:23.849Z,0.00
2019-01-03T02:40:23.741Z,0.00
2019-01-03T02:41:23.636Z,0.00
2019-01-03T02:42:23.529Z,0.00
2019-01-03T02:43:23.444Z,0.00
2019-01-03T02:44:23.319Z,0.00
2019-01-03T02:45:23.212Z,0.00
2019-01-03T02:46:23.112Z,0.00
2019-01-03T02:47:23.009Z,0.00
2019-01-03T02:48:22.914Z,0.00
2019-01-03T02:49:22.798Z,0.00
2019-01-03T02:50:22.687Z,0.00
2019-01-03T02:51:22.585Z,0.00
2019-01-03T02:52:22.472Z,0.00
2019-01-03T02:53:22.388Z,0.00
2019-01-03T02:54:22.268Z,0.00
2019-01-03T02:55:22.172Z,0.00
2019-01-03T02:56:22.054Z,0.00
2019-01-03T02:57:21.946Z,0.00
2019-01-03T02:58:23.587Z,0.00
2019-01-03T02:59:21.753Z,0.00
2019-01-03T03:00:21.634Z,0.00
2019-01-03T03:01:21.526Z,0.00
2019-01-03T03:02:21.418Z,0.00
2019-01-03T03:03:21.702Z,0.00
2019-01-03T03:04:21.229Z,0.00
2019-01-03T03:05:21.111Z,0.00
2019-01-03T03:06:21.006Z,0.00
2019-01-03T03:07:20.891Z,0.00
2019-01-03T03:08:20.792Z,0.00
2019-01-03T03:09:20.723Z,0.00
2019-01-03T03:10:20.686Z,0.00
2019-01-03T03:11:20.519Z,0.00
2019-01-03T03:12:20.368Z,0.00
2019-01-03T03:13:20.267Z,0.00
2019-01-03T03:14:20.174Z,0.00
2019-01-03T03:15:20.048Z,0.00
2019-01-03T03:16:19.946Z,0.00
2019-01-03T03:17:19.942Z,0.00
2019-01-03T03:18:19.737Z,0.00
2019-01-03T03:19:19.645Z,0.00
2019-01-03T03:20:19.533Z,0.00
2019-01-03T03:21:19.420Z,0.00
2019-01-03T03:22:19.310Z,0.00
2019-01-03T03:23:19.209Z,0.00
2019-01-03T03:24:19.218Z,0.00
2019-01-03T03:25:18.996Z,0.00
2019-01-03T03:26:18.892Z,0.00
2019-01-03T03:27:18.788Z,0.00
2019-01-03T03:28:18.682Z,0.00
2019-01-03T03:29:18.589Z,0.00
2019-01-03T03:30:18.513Z,0.00
2019-01-03T03:31:18.468Z,0.00
2019-01-03T03:32:18.260Z,0.00
2019-01-03T03:33:18.156Z,0.00
2019-01-03T03:34:18.066Z,0.00
2019-01-03T03:35:17.940Z,0.00
2019-01-03T03:36:17.841Z,0.00
2019-01-03T03:37:17.731Z,0.00
2019-01-03T03:38:17.730Z,0.00
2019-01-03T03:39:17.537Z,0.00
2019-01-03T03:40:17.432Z,0.00
2019-01-03T03:41:17.313Z,0.00
2019-01-03T03:42:17.207Z,0.00
2019-01-03T03:43:17.102Z,0.00
2019-01-03T03:44:17.013Z,0.00
2019-01-03T03:45:16.993Z,0.00
2019-01-03T03:46:16.788Z,0.00
2019-01-03T03:47:16.683Z,0.00
2019-01-03T03:48:16.577Z,0.00
2019-01-03T03:49:16.491Z,0.00
2019-01-03T03:50:16.365Z,0.00
2019-01-03T03:51:16.261Z,0.00
2019-01-03T03:52:16.254Z,0.00
2019-01-03T03:53:16.051Z,0.00
2019-01-03T03:54:15.958Z,0.00
2019-01-03T03:55:15.838Z,0.00
2019-01-03T03:56:15.735Z,0.00
2019-01-03T03:57:15.626Z,0.00
2019-01-03T03:58:15.536Z,0.00
2019-01-03T03:59:15.546Z,0.00
2019-01-03T04:00:15.313Z,0.00
2019-01-03T04:01:15.212Z,0.00
2019-01-03T04:02:15.101Z,0.00
2019-01-03T04:03:15.011Z,0.00
2019-01-03T04:04:14.909Z,0.00
2019-01-03T04:05:14.789Z,0.00
2019-01-03T04:06:14.803Z,0.00
2019-01-03T04:07:14.577Z,0.00
2019-01-03T04:08:14.474Z,0.00
2019-01-03T04:09:14.386Z,0.00
2019-01-03T04:10:14.259Z,0.00
2019-01-03T04:11:14.155Z,0.00
2019-01-03T04:12:14.192Z,0.00
2019-01-03T04:13:13.945Z,0.00
2019-01-03T04:14:13.854Z,0.00
2019-01-03T04:15:13.750Z,0.00
2019-01-03T04:16:13.632Z,0.00
2019-01-03T04:17:13.531Z,0.00
2019-01-03T04:18:13.417Z,0.00
2019-01-03T04:19:13.337Z,0.00
2019-01-03T04:20:13.212Z,0.00
2019-01-03T04:21:13.107Z,0.00
2019-01-03T04:22:12.997Z,0.00
2019-01-03T04:23:12.893Z,0.00
2019-01-03T04:24:12.810Z,0.00
2019-01-03T04:25:12.683Z,0.00
2019-01-03T04:26:12.579Z,0.00
2019-01-03T04:27:12.479Z,0.00
2019-01-03T04:28:12.371Z,0.00
2019-01-03T04:29:12.286Z,0.00
2019-01-03T04:30:12.156Z,0.00
2019-01-03T04:31:12.051Z,0.00
2019-01-03T04:32:11.950Z,0.00
2019-01-03T04:33:11.861Z,0.00
2019-01-03T04:34:11.752Z,0.00
2019-01-03T04:35:11.632Z,0.00
2019-01-03T04:36:11.529Z,0.00
2019-01-03T04:37:11.421Z,0.00
2019-01-03T04:38:11.313Z,0.00
2019-01-03T04:39:11.228Z,0.00
2019-01-03T04:40:11.101Z,0.00
2019-01-03T04:41:11.003Z,0.00
2019-01-03T04:42:10.934Z,0.00
2019-01-03T04:43:10.789Z,0.00
2019-01-03T04:44:10.686Z,0.00
2019-01-03T04:45:10.592Z,0.00
2019-01-03T04:46:10.474Z,0.00
2019-01-03T04:47:10.369Z,0.00
2019-01-03T04:48:10.270Z,0.00
2019-01-03T04:49:10.165Z,0.00
2019-01-03T04:50:10.069Z,0.00
2019-01-03T04:51:09.949Z,0.00
2019-01-03T04:52:09.840Z,0.00
2019-01-03T04:53:09.738Z,0.00
2019-01-03T04:54:09.637Z,0.00
2019-01-03T04:55:09.543Z,0.00
2019-01-03T04:56:09.420Z,0.00
2019-01-03T04:57:09.320Z,0.00
2019-01-03T04:58:09.212Z,0.00
2019-01-03T04:59:09.154Z,0.00
2019-01-03T05:00:09.020Z,0.00
2019-01-03T05:01:08.898Z,0.00
2019-01-03T05:02:08.792Z,0.00
2019-01-03T05:03:08.685Z,0.00
2019-01-03T05:04:08.582Z,0.00
2019-01-03T05:05:08.491Z,0.00
2019-01-03T05:06:08.372Z,0.00
2019-01-03T05:07:08.263Z,0.00
2019-01-03T05:08:08.162Z,0.00
2019-01-03T05:09:08.054Z,0.00
2019-01-03T05:10:07.989Z,0.00
2019-01-03T05:11:07.845Z,0.00
2019-01-03T05:12:07.738Z,0.00
2019-01-03T05:13:07.631Z,0.00
2019-01-03T05:14:07.530Z,0.00
2019-01-03T05:15:07.439Z,0.00
2019-01-03T05:16:07.315Z,0.00
2019-01-03T05:17:07.210Z,0.00
2019-01-03T05:18:07.108Z,0.00
2019-01-03T05:19:07.003Z,0.00
2019-01-03T05:20:06.914Z,0.00
2019-01-03T05:21:06.791Z,0.00
2019-01-03T05:22:06.683Z,0.00
2019-01-03T05:23:06.581Z,0.00
2019-01-03T05:24:06.476Z,0.00
2019-01-03T05:25:06.385Z,0.00
2019-01-03T05:26:06.273Z,0.00
2019-01-03T05:27:06.162Z,0.00
2019-01-03T05:28:06.052Z,0.00
2019-01-03T05:29:05.947Z,0.00
2019-01-03T05:30:05.862Z,0.00
2019-01-03T05:31:05.740Z,0.00
2019-01-03T05:32:05.632Z,0.00
2019-01-03T05:33:05.529Z,0.00
2019-01-03T05:34:05.428Z,0.00
2019-01-03T05:35:05.334Z,0.00
2019-01-03T05:36:05.214Z,0.00
2019-01-03T05:37:05.110Z,0.00
2019-01-03T05:38:05.004Z,0.00
2019-01-03T05:39:04.900Z,0.00
2019-01-03T05:40:04.812Z,0.00
2019-01-03T05:41:05.199Z,0.00
2019-01-03T05:42:04.582Z,0.00
2019-01-03T05:43:04.478Z,0.00
2019-01-03T05:44:04.374Z,0.00
2019-01-03T05:45:04.282Z,0.00
2019-01-03T05:46:04.159Z,0.00
2019-01-03T05:47:04.056Z,0.00
2019-01-03T05:48:03.953Z,0.00
2019-01-03T05:49:03.851Z,0.00
2019-01-03T05:50:03.858Z,0.00
2019-01-03T05:51:03.637Z,0.00
2019-01-03T05:52:03.533Z,0.00
2019-01-03T05:53:03.428Z,0.00
2019-01-03T05:54:03.319Z,0.00
2019-01-03T05:55:03.249Z,0.00
2019-01-03T05:56:03.111Z,0.00
2019-01-03T05:57:03.106Z,0.00
2019-01-03T05:58:02.899Z,0.00
2019-01-03T05:59:02.797Z,0.00
2019-01-03T06:00:02.707Z,0.00
2019-01-03T06:01:02.585Z,0.00
2019-01-03T06:02:02.478Z,0.00
2019-01-03T06:03:02.372Z,0.00
2019-01-03T06:04:02.394Z,0.00
2019-01-03T06:05:02.179Z,0.00
2019-01-03T06:06:02.060Z,0.00
2019-01-03T06:07:01.951Z,0.00
2019-01-03T06:08:01.848Z,0.00
2019-01-03T06:09:01.746Z,0.00
2019-01-03T06:10:01.652Z,0.00
2019-01-03T06:11:01.632Z,0.00
2019-01-03T06:12:01.428Z,0.00
2019-01-03T06:13:01.321Z,0.00
2019-01-03T06:14:01.215Z,0.00
2019-01-03T06:15:01.132Z,0.00
2019-01-03T06:16:01.004Z,0.00
2019-01-03T06:17:00.902Z,0.00
2019-01-03T06:18:00.896Z,0.00
2019-01-03T06:19:00.693Z,0.00
2019-01-03T06:20:00.607Z,0.00
2019-01-03T06:21:00.482Z,0.00
2019-01-03T06:22:00.377Z,0.00
2019-01-03T06:23:00.268Z,0.00
2019-01-03T06:24:00.169Z,0.00
2019-01-03T06:25:00.186Z,0.00
2019-01-03T06:25:59.954Z,0.00
2019-01-03T06:26:59.849Z,0.00
2019-01-03T06:27:59.743Z,0.00
2019-01-03T06:28:59.644Z,0.00
2019-01-03T06:29:59.537Z,0.00
2019-01-03T06:30:59.444Z,0.00
2019-01-03T06:31:59.430Z,0.00
2019-01-03T06:32:59.217Z,0.00
2019-01-03T06:33:59.118Z,0.00
2019-01-03T06:34:59.011Z,0.00
2019-01-03T06:35:58.921Z,0.00
2019-01-03T06:36:58.802Z,4.00
2019-01-03T06:37:58.692Z,0.00
2019-01-03T06:38:58.689Z,4.00
2019-01-03T06:39:58.484Z,4.00
2019-01-03T06:40:58.394Z,4.00
2019-01-03T06:41:58.268Z,4.00
2019-01-03T06:42:58.167Z,4.00
2019-01-03T06:43:58.065Z,4.00
2019-01-03T06:44:57.960Z,4.00
2019-01-03T06:45:57.969Z,8.00
2019-01-03T06:46:57.744Z,8.00
2019-01-03T06:47:57.637Z,8.00
2019-01-03T06:48:57.539Z,8.00
2019-01-03T06:49:57.428Z,8.00
2019-01-03T06:50:57.340Z,16.00
2019-01-03T06:51:57.219Z,16.00
2019-01-03T06:52:57.219Z,20.00
2019-01-03T06:53:57.007Z,20.00
2019-01-03T06:54:56.903Z,24.00
2019-01-03T06:55:56.812Z,24.00
2019-01-03T06:56:56.691Z,32.00
2019-01-03T06:57:56.585Z,36.00
2019-01-03T06:58:56.482Z,40.00
2019-01-03T06:59:56.378Z,44.00
2019-01-03T07:00:56.289Z,48.00
2019-01-03T07:01:56.164Z,60.00
2019-01-03T07:02:56.062Z,72.00
2019-01-03T07:03:55.959Z,88.00
2019-01-03T07:04:55.848Z,96.00
2019-01-03T07:05:55.761Z,104.00
2019-01-03T07:06:55.637Z,128.00
2019-01-03T07:07:55.530Z,136.00
2019-01-03T07:08:55.427Z,156.00
2019-01-03T07:09:55.334Z,172.00
2019-01-03T07:10:55.235Z,184.00
2019-01-03T07:11:55.219Z,200.00
2019-01-03T07:12:55.010Z,204.00
2019-01-03T07:13:54.902Z,220.00
2019-01-03T07:14:54.795Z,268.00
2019-01-03T07:15:54.713Z,316.00
2019-01-03T07:16:54.594Z,356.00
2019-01-03T07:17:54.482Z,400.00
2019-01-03T07:18:54.376Z,436.00
2019-01-03T07:19:54.272Z,476.00
2019-01-03T07:20:54.182Z,464.00
2019-01-03T07:21:54.061Z,560.00
2019-01-03T07:22:53.956Z,608.00
2019-01-03T07:23:53.851Z,680.00
2019-01-03T07:24:53.742Z,764.00
2019-01-03T07:25:53.751Z,836.00
2019-01-03T07:26:53.532Z,780.00
2019-01-03T07:27:53.430Z,816.00
2019-01-03T07:28:53.325Z,900.00
2019-01-03T07:29:53.221Z,828.00
2019-01-03T07:30:53.127Z,632.00
2019-01-03T07:31:53.009Z,572.00
2019-01-03T07:32:53.010Z,664.00
2019-01-03T07:33:52.797Z,816.00
2019-01-03T07:34:52.693Z,948.00
2019-01-03T07:35:52.603Z,1156.00
2019-01-03T07:36:52.486Z,1120.00
2019-01-03T07:37:52.378Z,1132.00
2019-01-03T07:38:52.396Z,1292.00
2019-01-03T07:39:52.164Z,1724.00
2019-01-03T07:40:52.078Z,1968.00
2019-01-03T07:41:51.957Z,1976.00
2019-01-03T07:42:51.854Z,1960.00
2019-01-03T07:43:51.748Z,1908.00
2019-01-03T07:44:51.643Z,2504.00
2019-01-03T07:45:51.555Z,2976.00
2019-01-03T07:46:51.436Z,3104.00
2019-01-03T07:47:51.328Z,2812.00
2019-01-03T07:48:51.219Z,2712.00
2019-01-03T07:49:51.116Z,2872.00
2019-01-03T07:50:51.028Z,2480.00
2019-01-03T07:51:50.919Z,2580.00
2019-01-03T07:52:50.801Z,2856.00
2019-01-03T07:53:50.697Z,2588.00
2019-01-03T07:54:50.598Z,2268.00
2019-01-03T07:55:50.512Z,1916.00
2019-01-03T07:56:50.382Z,2000.00
2019-01-03T07:57:50.282Z,2172.00
2019-01-03T07:58:50.171Z,2048.00
2019-01-03T07:59:50.167Z,2296.00
2019-01-03T08:00:49.980Z,2604.00
2019-01-03T08:01:49.864Z,2520.00
2019-01-03T08:02:49.752Z,2116.00
2019-01-03T08:03:49.651Z,2100.00
2019-01-03T08:04:49.547Z,2404.00
2019-01-03T08:05:49.445Z,2364.00
2019-01-03T08:06:49.349Z,2136.00
2019-01-03T08:07:49.228Z,2028.00
2019-01-03T08:08:49.126Z,2148.00
2019-01-03T08:09:49.022Z,2512.00
2019-01-03T08:10:48.930Z,3152.00
2019-01-03T08:11:48.827Z,3016.00
2019-01-03T08:12:48.711Z,3424.00
2019-01-03T08:13:48.601Z,3932.00
2019-01-03T08:14:48.498Z,3720.00
2019-01-03T08:15:48.397Z,5652.00
2019-01-03T08:16:48.307Z,6296.00
2019-01-03T08:17:48.182Z,5352.00
2019-01-03T08:18:48.077Z,4388.00
2019-01-03T08:19:48.035Z,8948.00
2019-01-03T08:20:47.871Z,4328.00
2019-01-03T08:21:47.785Z,4464.00
2019-01-03T08:22:47.660Z,5672.00
2019-01-03T08:23:47.557Z,11680.00
2019-01-03T08:24:47.455Z,11460.00
2019-01-03T08:25:47.348Z,15200.00
2019-01-03T08:26:47.261Z,8076.00
2019-01-03T08:27:47.143Z,10520.00
2019-01-03T08:28:47.042Z,20672.00
2019-01-03T08:29:46.932Z,10824.00
2019-01-03T08:30:46.838Z,12860.00
2019-01-03T08:31:46.740Z,18656.00
2019-01-03T08:32:46.621Z,11960.00
2019-01-03T08:33:46.516Z,5420.00
2019-01-03T08:34:46.517Z,5208.00
2019-01-03T08:35:46.316Z,5080.00
2019-01-03T08:36:46.223Z,6940.00
2019-01-03T08:37:46.107Z,11908.00
2019-01-03T08:38:46.004Z,7708.00
2019-01-03T08:39:45.901Z,6304.00
2019-01-03T08:40:45.919Z,5908.00
2019-01-03T08:41:45.713Z,7140.00
2019-01-03T08:42:45.606Z,7656.00
2019-01-03T08:43:45.490Z,11544.00
2019-01-03T08:44:45.383Z,11160.00
2019-01-03T08:45:45.281Z,6724.00
2019-01-03T08:46:45.192Z,11240.00
2019-01-03T08:47:45.073Z,19872.00
2019-01-03T08:48:44.973Z,18016.00
2019-01-03T08:49:44.870Z,18208.00
2019-01-03T08:50:44.766Z,16416.00
2019-01-03T08:51:44.681Z,17824.00
2019-01-03T08:52:44.563Z,20096.00
2019-01-03T08:53:44.460Z,23296.00
2019-01-03T08:54:44.361Z,14212.00
2019-01-03T08:55:44.255Z,21568.00
2019-01-03T08:56:44.172Z,22336.00
2019-01-03T08:57:44.049Z,17280.00
2019-01-03T08:58:43.994Z,20256.00
2019-01-03T08:59:43.847Z,18720.00
2019-01-03T09:00:43.751Z,21568.00
2019-01-03T09:01:43.773Z,23328.00
2019-01-03T09:02:43.546Z,22976.00
2019-01-03T09:03:43.444Z,22912.00
2019-01-03T09:04:43.362Z,22848.00
2019-01-03T09:05:43.242Z,22912.00
2019-01-03T09:06:43.154Z,23136.00
2019-01-03T09:07:43.145Z,22944.00
2019-01-03T09:08:42.940Z,22592.00
2019-01-03T09:09:42.840Z,21728.00
2019-01-03T09:10:42.739Z,21600.00
2019-01-03T09:11:42.663Z,20960.00
2019-01-03T09:12:42.541Z,21376.00
2019-01-03T09:13:42.462Z,21280.00
2019-01-03T09:14:42.337Z,21216.00
2019-01-03T09:15:42.238Z,20768.00
2019-01-03T09:16:42.160Z,21504.00
2019-01-03T09:17:42.042Z,20768.00
2019-01-03T09:18:41.945Z,19936.00
2019-01-03T09:19:41.842Z,20704.00
2019-01-03T09:20:41.742Z,21280.00
2019-01-03T09:21:41.772Z,20800.00
2019-01-03T09:22:41.559Z,20896.00
2019-01-03T09:23:41.447Z,21600.00
2019-01-03T09:24:41.347Z,21888.00
2019-01-03T09:25:41.247Z,22208.00
2019-01-03T09:26:41.161Z,21856.00
2019-01-03T09:27:41.046Z,22496.00
2019-01-03T09:28:41.054Z,22848.00
2019-01-03T09:29:40.847Z,22880.00
2019-01-03T09:30:40.753Z,22752.00
2019-01-03T09:31:40.671Z,23648.00
2019-01-03T09:32:40.603Z,24416.00
2019-01-03T09:33:40.456Z,24800.00
2019-01-03T09:34:40.354Z,26080.00
2019-01-03T09:35:40.262Z,26304.00
2019-01-03T09:36:40.175Z,26080.00
2019-01-03T09:37:40.056Z,28992.00
2019-01-03T09:38:39.986Z,29024.00
2019-01-03T09:39:39.865Z,30112.00
2019-01-03T09:40:39.761Z,29376.00
2019-01-03T09:41:39.680Z,28512.00
2019-01-03T09:42:39.567Z,28608.00
2019-01-03T09:43:39.464Z,28128.00
2019-01-03T09:44:39.375Z,24608.00
2019-01-03T09:45:44.304Z,24128.00
2019-01-03T09:46:39.196Z,22432.00
2019-01-03T09:47:39.075Z,23168.00
2019-01-03T09:48:38.980Z,24576.00
2019-01-03T09:49:38.881Z,24768.00
2019-01-03T09:50:38.783Z,24160.00
2019-01-03T09:51:38.700Z,22720.00
2019-01-03T09:52:38.588Z,24384.00
2019-01-03T09:53:38.491Z,23296.00
2019-01-03T09:54:38.394Z,15772.00
2019-01-03T09:55:38.292Z,16480.00
2019-01-03T09:56:38.215Z,18688.00
2019-01-03T09:57:38.097Z,24672.00
2019-01-03T09:58:38.002Z,25408.00
2019-01-03T09:59:37.904Z,24448.00
2019-01-03T10:00:37.822Z,25856.00
2019-01-03T10:01:37.710Z,24032.00
2019-01-03T10:02:37.625Z,28000.00
2019-01-03T10:03:37.515Z,28416.00
2019-01-03T10:04:37.413Z,29184.00
2019-01-03T10:05:37.318Z,19328.00
2019-01-03T10:06:37.225Z,13548.00
2019-01-03T10:07:37.144Z,12300.00
2019-01-03T10:08:37.023Z,12216.00
2019-01-03T10:09:36.929Z,11204.00
2019-01-03T10:10:36.827Z,9928.00
2019-01-03T10:11:36.737Z,9844.00
2019-01-03T10:12:36.651Z,9820.00
2019-01-03T10:13:36.533Z,9660.00
2019-01-03T10:14:36.436Z,9932.00
2019-01-03T10:15:36.339Z,9444.00
2019-01-03T10:16:36.247Z,10888.00
2019-01-03T10:17:36.160Z,8844.00
2019-01-03T10:18:36.046Z,6804.00
2019-01-03T10:19:35.942Z,6020.00
2019-01-03T10:20:35.846Z,5924.00
2019-01-03T10:21:35.750Z,6900.00
2019-01-03T10:22:35.672Z,7688.00
2019-01-03T10:23:35.544Z,7840.00
2019-01-03T10:24:35.445Z,7700.00
2019-01-03T10:25:35.346Z,7984.00
2019-01-03T10:26:35.244Z,7652.00
2019-01-03T10:27:35.159Z,7488.00
2019-01-03T10:28:35.042Z,7568.00
2019-01-03T10:29:34.941Z,8708.00
2019-01-03T10:30:34.954Z,10336.00
2019-01-03T10:31:34.740Z,12188.00
2019-01-03T10:32:34.656Z,9256.00
2019-01-03T10:33:34.536Z,12720.00
2019-01-03T10:34:34.433Z,14964.00
2019-01-03T10:35:34.332Z,10552.00
2019-01-03T10:36:34.234Z,11504.00
2019-01-03T10:37:34.149Z,14080.00
2019-01-03T10:38:34.033Z,15016.00
2019-01-03T10:39:33.929Z,13520.00
2019-01-03T10:40:33.830Z,12840.00
2019-01-03T10:41:33.725Z,9804.00
2019-01-03T10:42:33.645Z,7648.00
2019-01-03T10:43:33.527Z,7556.00
2019-01-03T10:44:33.529Z,10472.00
2019-01-03T10:45:33.325Z,12432.00
2019-01-03T10:46:33.225Z,12160.00
2019-01-03T10:47:33.140Z,17760.00
2019-01-03T10:48:33.021Z,21536.00
2019-01-03T10:49:32.922Z,22432.00
2019-01-03T10:50:32.827Z,23264.00
2019-01-03T10:51:32.825Z,22784.00
2019-01-03T10:52:32.634Z,22816.00
2019-01-03T10:53:32.513Z,22848.00
2019-01-03T10:54:32.412Z,22560.00
2019-01-03T10:55:32.315Z,22464.00
2019-01-03T10:56:32.218Z,22144.00
2019-01-03T10:57:32.128Z,22304.00
2019-01-03T10:58:32.120Z,21888.00
2019-01-03T10:59:31.916Z,22080.00
2019-01-03T11:00:31.822Z,22720.00
2019-01-03T11:01:31.720Z,22304.00
2019-01-03T11:02:31.636Z,22272.00
2019-01-03T11:03:31.525Z,22176.00
2019-01-03T11:04:31.427Z,23200.00
2019-01-03T11:05:31.427Z,24064.00
2019-01-03T11:06:31.226Z,25184.00
2019-01-03T11:07:31.145Z,26272.00
2019-01-03T11:08:31.036Z,27040.00
2019-01-03T11:09:30.947Z,27904.00
2019-01-03T11:10:30.839Z,28480.00
2019-01-03T11:11:30.739Z,28192.00
2019-01-03T11:12:30.655Z,27168.00
2019-01-03T11:13:30.542Z,30176.00
2019-01-03T11:14:30.447Z,32096.00
2019-01-03T11:15:30.351Z,30208.00
2019-01-03T11:16:30.250Z,18080.00
2019-01-03T11:17:30.169Z,17024.00
2019-01-03T11:18:30.156Z,16112.00
2019-01-03T11:19:29.961Z,14644.00
2019-01-03T11:20:29.861Z,13736.00
2019-01-03T11:21:29.765Z,12608.00
2019-01-03T11:22:29.682Z,12532.00
2019-01-03T11:23:29.573Z,12412.00
2019-01-03T11:24:29.471Z,12244.00
2019-01-03T11:25:29.476Z,11640.00
2019-01-03T11:26:29.272Z,11472.00
2019-01-03T11:27:29.190Z,11508.00
2019-01-03T11:28:29.076Z,11540.00
2019-01-03T11:29:28.981Z,11104.00
2019-01-03T11:30:28.882Z,10944.00
2019-01-03T11:31:28.777Z,11080.00
2019-01-03T11:32:28.698Z,10552.00
2019-01-03T11:33:28.579Z,10344.00
2019-01-03T11:34:28.476Z,10692.00
2019-01-03T11:35:28.379Z,10508.00
2019-01-03T11:36:28.286Z,10580.00
2019-01-03T11:37:28.190Z,10424.00
2019-01-03T11:38:28.078Z,9948.00
2019-01-03T11:39:27.981Z,9428.00
2019-01-03T11:40:27.875Z,9024.00
2019-01-03T11:41:27.772Z,8232.00
2019-01-03T11:42:27.685Z,7804.00
2019-01-03T11:43:27.570Z,7664.00
2019-01-03T11:44:27.469Z,7288.00
2019-01-03T11:45:27.468Z,7352.00
2019-01-03T11:46:27.267Z,8408.00
2019-01-03T11:47:27.186Z,10276.00
2019-01-03T11:48:27.061Z,12276.00
2019-01-03T11:49:26.967Z,16416.00
2019-01-03T11:50:26.861Z,21088.00
2019-01-03T11:51:26.757Z,20960.00
2019-01-03T11:52:26.759Z,14960.00
2019-01-03T11:53:26.570Z,12748.00
2019-01-03T11:54:26.454Z,11460.00
2019-01-03T11:55:26.356Z,9448.00
2019-01-03T11:56:26.255Z,9060.00
2019-01-03T11:57:26.144Z,9012.00
2019-01-03T11:58:26.170Z,8964.00
2019-01-03T11:59:25.941Z,8136.00
2019-01-03T12:00:25.843Z,7188.00
2019-01-03T12:01:25.740Z,7216.00
2019-01-03T12:02:25.885Z,7536.00
2019-01-03T12:03:25.551Z,7576.00
2019-01-03T12:04:25.442Z,8208.00
2019-01-03T12:05:25.331Z,9492.00
2019-01-03T12:06:25.226Z,9984.00
2019-01-03T12:07:25.129Z,10104.00
2019-01-03T12:08:25.038Z,10056.00
2019-01-03T12:09:24.917Z,10580.00
2019-01-03T12:10:24.819Z,10244.00
2019-01-03T12:11:24.717Z,9392.00
2019-01-03T12:12:24.618Z,8548.00
2019-01-03T12:13:24.524Z,7876.00
2019-01-03T12:14:24.412Z,7332.00
2019-01-03T12:15:24.307Z,6876.00
2019-01-03T12:16:24.202Z,6164.00
2019-01-03T12:17:24.102Z,5760.00
2019-01-03T12:18:24.015Z,5836.00
2019-01-03T12:19:23.997Z,5812.00
2019-01-03T12:20:23.795Z,6108.00
2019-01-03T12:21:23.688Z,5832.00
2019-01-03T12:22:23.585Z,5068.00
2019-01-03T12:23:23.501Z,4920.00
2019-01-03T12:24:23.384Z,5456.00
2019-01-03T12:25:23.301Z,5732.00
2019-01-03T12:26:23.176Z,6136.00
2019-01-03T12:27:23.081Z,6196.00
2019-01-03T12:28:22.992Z,5940.00
2019-01-03T12:29:22.871Z,6236.00
2019-01-03T12:30:22.763Z,6764.00
2019-01-03T12:31:22.660Z,6288.00
2019-01-03T12:32:22.662Z,5892.00
2019-01-03T12:33:22.473Z,6072.00
2019-01-03T12:34:22.367Z,6488.00
2019-01-03T12:35:22.249Z,6804.00
2019-01-03T12:36:22.149Z,7104.00
2019-01-03T12:37:22.042Z,7144.00
2019-01-03T12:38:21.959Z,6520.00